createdAt,value
2023-03-05T00:00:15.317Z,101313.38
2023-03-05T00:02:43.775Z,101315.97
2023-03-05T00:05:13.278Z,101316.50
2023-03-05T00:07:41.028Z,101321.31
2023-03-05T00:10:09.759Z,101312.94
2023-03-05T00:12:37.569Z,101305.13
2023-03-05T00:15:06.073Z,101296.81
2023-03-05T00:17:33.769Z,101296.25
2023-03-05T00:20:02.482Z,101291.28
2023-03-05T00:22:31.730Z,101280.75
2023-03-05T00:24:59.486Z,101288.31
2023-03-05T00:27:27.234Z,101288.00
2023-03-05T00:29:54.987Z,101271.63
2023-03-05T00:32:22.819Z,101278.91
2023-03-05T00:34:50.862Z,101280.81
2023-03-05T00:37:18.578Z,101267.13
2023-03-05T00:39:47.688Z,101272.00
2023-03-05T00:42:15.403Z,101268.19
2023-03-05T00:44:43.138Z,101269.47
2023-03-05T00:47:10.879Z,101268.44
2023-03-05T00:49:38.565Z,101276.81
2023-03-05T00:52:06.498Z,101277.13
2023-03-05T00:54:34.209Z,101270.66
2023-03-05T00:57:03.308Z,101267.59
2023-03-05T00:59:31.025Z,101282.13
2023-03-05T01:01:58.780Z,101268.69
2023-03-05T01:04:26.553Z,101260.06
2023-03-05T01:06:54.461Z,101266.28
2023-03-05T01:09:25.174Z,101263.06
2023-03-05T01:11:53.440Z,101262.69
2023-03-05T01:14:22.780Z,101260.22
2023-03-05T01:16:50.697Z,101255.50
2023-03-05T01:19:18.427Z,101246.31
2023-03-05T01:21:46.163Z,101246.41
2023-03-05T01:24:13.969Z,101238.63
2023-03-05T01:26:41.712Z,101236.50
2023-03-05T01:29:09.437Z,101228.44
2023-03-05T01:31:38.560Z,101236.19
2023-03-05T01:34:06.312Z,101232.38
2023-03-05T01:36:34.087Z,101231.03
2023-03-05T01:39:02.801Z,101240.25
2023-03-05T01:41:30.547Z,101228.66
2023-03-05T01:43:58.278Z,101227.00
2023-03-05T01:46:31.776Z,101219.59
2023-03-05T01:49:05.530Z,101211.31
2023-03-05T01:51:37.862Z,101222.16
2023-03-05T01:54:08.469Z,101199.59
2023-03-05T01:56:36.979Z,101210.25
2023-03-05T01:59:04.889Z,101211.22
2023-03-05T02:01:36.453Z,101207.91
2023-03-05T02:04:06.416Z,101207.28
2023-03-05T02:06:34.906Z,101202.41
2023-03-05T02:09:02.632Z,101199.09
2023-03-05T02:11:30.917Z,101206.06
2023-03-05T02:13:59.442Z,101200.03
2023-03-05T02:16:27.548Z,101198.53
2023-03-05T02:18:55.270Z,101196.59
2023-03-05T02:21:37.149Z,101185.25
2023-03-05T02:24:05.355Z,101181.88
2023-03-05T02:26:33.150Z,101185.44
2023-03-05T02:29:02.804Z,101181.41
2023-03-05T02:31:31.255Z,101180.84
2023-03-05T02:33:59.098Z,101180.69
2023-03-05T02:36:27.248Z,101179.22
2023-03-05T02:38:57.098Z,101181.84
2023-03-05T02:41:25.930Z,101181.59
2023-03-05T02:43:53.668Z,101165.69
2023-03-05T02:46:21.413Z,101172.31
2023-03-05T02:48:49.976Z,101160.44
2023-03-05T02:51:18.246Z,101154.44
2023-03-05T02:53:46.037Z,101153.59
2023-03-05T02:56:15.214Z,101157.56
2023-03-05T02:58:43.011Z,101154.66
2023-03-05T03:01:11.338Z,101152.47
2023-03-05T03:03:39.238Z,101154.41
2023-03-05T03:06:08.021Z,101143.88
2023-03-05T03:08:35.844Z,101144.69
2023-03-05T03:11:07.951Z,101143.75
2023-03-05T03:13:37.100Z,101137.47
2023-03-05T03:16:06.489Z,101130.84
2023-03-05T03:18:34.440Z,101133.06
2023-03-05T03:21:02.628Z,101128.97
2023-03-05T03:23:30.579Z,101128.47
2023-03-05T03:25:58.857Z,101130.84
2023-03-05T03:28:26.866Z,101121.09
2023-03-05T03:30:56.113Z,101124.00
2023-03-05T03:33:23.876Z,101105.38
2023-03-05T03:35:51.746Z,101132.81
2023-03-05T03:38:19.791Z,101120.25
2023-03-05T03:40:47.552Z,101131.53
2023-03-05T03:43:15.266Z,101120.69
2023-03-05T03:45:43.585Z,101122.56
2023-03-05T03:48:13.048Z,101119.09
2023-03-05T03:50:41.320Z,101115.78
2023-03-05T03:53:09.817Z,101104.16
2023-03-05T03:55:37.538Z,101099.91
2023-03-05T03:58:05.354Z,101104.31
2023-03-05T04:00:33.157Z,101083.47
2023-03-05T04:03:00.873Z,101095.00
2023-03-05T04:05:30.250Z,101091.50
2023-03-05T04:07:59.911Z,101085.66
2023-03-05T04:10:27.723Z,101091.47
2023-03-05T04:12:55.451Z,101084.28
2023-03-05T04:15:23.225Z,101089.91
2023-03-05T04:17:50.931Z,101082.34
2023-03-05T04:20:18.987Z,101081.47
2023-03-05T04:22:48.096Z,101074.56
2023-03-05T04:25:16.007Z,101077.19
2023-03-05T04:27:43.762Z,101072.31
2023-03-05T04:30:14.727Z,101077.34
2023-03-05T04:32:42.517Z,101076.56
2023-03-05T04:35:10.891Z,101067.56
2023-03-05T04:37:38.733Z,101077.06
2023-03-05T04:40:09.362Z,101066.72
2023-03-05T04:42:37.123Z,101077.31
2023-03-05T04:45:06.706Z,101073.19
2023-03-05T04:47:35.131Z,101070.53
2023-03-05T04:50:03.209Z,101077.06
2023-03-05T04:52:31.005Z,101075.97
2023-03-05T04:54:59.098Z,101075.50
2023-03-05T04:57:28.303Z,101070.06
2023-03-05T04:59:56.041Z,101073.28
2023-03-05T05:02:23.815Z,101070.41
2023-03-05T05:04:54.193Z,101073.66
2023-03-05T05:07:22.350Z,101069.00
2023-03-05T05:09:50.108Z,101068.97
2023-03-05T05:12:18.194Z,101080.13
2023-03-05T05:14:47.313Z,101079.31
2023-03-05T05:17:15.051Z,101083.00
2023-03-05T05:19:42.869Z,101087.00
2023-03-05T05:22:10.648Z,101076.03
2023-03-05T05:24:38.400Z,101090.00
2023-03-05T05:27:06.155Z,101082.41
2023-03-05T05:29:33.890Z,101079.13
2023-03-05T05:32:03.014Z,101083.13
2023-03-05T05:34:30.724Z,101083.81
2023-03-05T05:36:58.498Z,101084.00
2023-03-05T05:39:26.300Z,101086.59
2023-03-05T05:41:54.517Z,101066.34
2023-03-05T05:44:22.225Z,101070.31
2023-03-05T05:46:50.020Z,101076.72
2023-03-05T05:49:19.190Z,101079.13
2023-03-05T05:51:46.993Z,101081.06
2023-03-05T05:54:15.794Z,101072.72
2023-03-05T05:56:43.602Z,101071.94
2023-03-05T05:59:11.642Z,101075.44
2023-03-05T06:01:39.426Z,101076.00
2023-03-05T06:04:07.294Z,101066.31
2023-03-05T06:06:36.417Z,101079.09
2023-03-05T06:09:05.163Z,101081.38
2023-03-05T06:11:34.061Z,101080.22
2023-03-05T06:14:02.922Z,101079.81
2023-03-05T06:16:31.433Z,101084.66
2023-03-05T06:19:00.103Z,101083.31
2023-03-05T06:21:27.830Z,101075.25
2023-03-05T06:23:58.664Z,101081.03
2023-03-05T06:26:26.917Z,101072.66
2023-03-05T06:28:55.076Z,101086.41
2023-03-05T06:31:25.622Z,101081.44
2023-03-05T06:33:54.771Z,101085.53
2023-03-05T06:36:24.487Z,101084.63
2023-03-05T06:38:53.405Z,101073.72
2023-03-05T06:41:24.227Z,101082.97
2023-03-05T06:43:52.061Z,101079.63
2023-03-05T06:46:21.864Z,101086.53
2023-03-05T06:48:50.687Z,101087.59
2023-03-05T06:51:21.086Z,101094.56
2023-03-05T06:53:49.685Z,101089.97
2023-03-05T06:56:18.417Z,101087.22
2023-03-05T06:58:49.721Z,101086.56
2023-03-05T07:01:18.361Z,101083.53
2023-03-05T07:03:46.578Z,101095.81
2023-03-05T07:06:15.871Z,101095.22
2023-03-05T07:08:44.741Z,101099.75
2023-03-05T07:11:13.035Z,101095.31
2023-03-05T07:13:40.811Z,101102.13
2023-03-05T07:16:11.774Z,101101.66
2023-03-05T07:18:39.483Z,101088.19
2023-03-05T07:21:08.592Z,101091.88
2023-03-05T07:23:37.652Z,101099.53
2023-03-05T07:26:07.465Z,101104.97
2023-03-05T07:28:35.694Z,101093.53
2023-03-05T07:31:05.913Z,101097.22
2023-03-05T07:33:37.209Z,101102.28
2023-03-05T07:36:05.517Z,101108.38
2023-03-05T07:38:33.304Z,101093.47
2023-03-05T07:41:03.869Z,101102.56
2023-03-05T07:43:31.664Z,101095.91
2023-03-05T07:45:59.610Z,101085.53
2023-03-05T07:48:27.376Z,101084.72
2023-03-05T07:51:03.521Z,101089.75
2023-03-05T07:53:31.584Z,101082.44
2023-03-05T07:55:59.329Z,101090.66
2023-03-05T07:58:27.392Z,101076.56
2023-03-05T08:00:55.131Z,101075.91
2023-03-05T08:03:22.893Z,101085.72
2023-03-05T08:05:50.666Z,101078.25
2023-03-05T08:08:19.959Z,101075.72
2023-03-05T08:10:47.767Z,101069.56
2023-03-05T08:13:15.535Z,101071.94
2023-03-05T08:15:43.402Z,101077.06
2023-03-05T08:18:11.206Z,101088.53
2023-03-05T08:20:38.945Z,101084.31
2023-03-05T08:23:06.746Z,101080.97
2023-03-05T08:25:35.824Z,101066.84
2023-03-05T08:28:03.540Z,101071.00
2023-03-05T08:30:31.266Z,101072.59
2023-03-05T08:32:58.981Z,101073.06
2023-03-05T08:35:26.738Z,101064.28
2023-03-05T08:37:54.514Z,101068.66
2023-03-05T08:40:22.302Z,101068.13
2023-03-05T08:42:52.208Z,101076.25
2023-03-05T08:45:19.961Z,101068.38
2023-03-05T08:47:47.679Z,101071.50
2023-03-05T08:50:15.400Z,101063.69
2023-03-05T08:52:43.108Z,101053.03
2023-03-05T08:55:12.554Z,101064.59
2023-03-05T08:57:40.301Z,101056.81
2023-03-05T09:00:12.608Z,101064.97
2023-03-05T09:02:40.421Z,101053.97
2023-03-05T09:05:09.272Z,101064.91
2023-03-05T09:07:37.894Z,101065.84
2023-03-05T09:10:06.722Z,101059.31
2023-03-05T09:12:34.447Z,101060.91
2023-03-05T09:15:02.191Z,101060.78
2023-03-05T09:17:31.305Z,101052.31
2023-03-05T09:19:59.078Z,101045.16
2023-03-05T09:22:26.922Z,101055.16
2023-03-05T09:24:54.717Z,101059.66
2023-03-05T09:27:23.276Z,101043.41
2023-03-05T09:29:52.532Z,101049.50
2023-03-05T09:32:20.325Z,101052.13
2023-03-05T09:34:49.469Z,101043.16
2023-03-05T09:37:17.229Z,101054.69
2023-03-05T09:39:45.069Z,101052.25
2023-03-05T09:42:30.620Z,101042.84
2023-03-05T09:45:08.858Z,101041.81
2023-03-05T09:47:47.803Z,101055.41
2023-03-05T09:50:36.718Z,101045.97
2023-03-05T09:53:13.505Z,101050.84
2023-03-05T09:55:45.641Z,101061.72
2023-03-05T09:58:17.403Z,101061.06
2023-03-05T10:00:46.806Z,101060.44
2023-03-05T10:03:20.857Z,101052.06
2023-03-05T10:06:03.140Z,101040.44
2023-03-05T10:08:41.548Z,101035.19
2023-03-05T10:11:24.007Z,101031.84
2023-03-05T10:13:52.222Z,101022.75
2023-03-05T10:16:42.754Z,101031.94
2023-03-05T10:19:20.699Z,101030.47
2023-03-05T10:21:54.617Z,101024.88
2023-03-05T10:24:31.516Z,101028.81
2023-03-05T10:27:03.813Z,101034.22
2023-03-05T10:29:45.826Z,101026.88
2023-03-05T10:32:25.040Z,101034.16
2023-03-05T10:35:12.370Z,101030.09
2023-03-05T10:37:59.963Z,101032.47
2023-03-05T10:40:33.682Z,101025.53
2023-03-05T10:43:09.491Z,101015.56
2023-03-05T10:45:42.480Z,101018.28
2023-03-05T10:48:17.280Z,101024.22
2023-03-05T10:50:48.904Z,101027.41
2023-03-05T10:53:26.185Z,101011.75
2023-03-05T10:55:56.496Z,101017.41
2023-03-05T10:58:26.003Z,101017.25
2023-03-05T11:01:02.636Z,101012.00
2023-03-05T11:03:48.104Z,101020.19
2023-03-05T11:06:17.508Z,101019.28
2023-03-05T11:08:46.948Z,101007.56
2023-03-05T11:11:17.700Z,101002.00
2023-03-05T11:13:54.484Z,101003.53
2023-03-05T11:16:25.027Z,101011.84
2023-03-05T11:19:17.692Z,100998.97
2023-03-05T11:21:47.439Z,100998.97
2023-03-05T11:24:20.349Z,101012.31
2023-03-05T11:26:51.146Z,101006.50
2023-03-05T11:29:22.599Z,100992.50
2023-03-05T11:31:51.322Z,100992.09
2023-03-05T11:34:40.217Z,100989.13
2023-03-05T11:37:20.604Z,100987.13
2023-03-05T11:39:50.228Z,100987.75
2023-03-05T11:42:25.073Z,100990.16
2023-03-05T11:44:55.784Z,100980.41
2023-03-05T11:47:29.570Z,100975.53
2023-03-05T11:50:04.234Z,100977.34
2023-03-05T11:52:35.241Z,100982.16
2023-03-05T11:55:11.810Z,100969.22
2023-03-05T11:57:44.750Z,100970.47
2023-03-05T12:00:18.282Z,100968.22
2023-03-05T12:02:51.701Z,100968.38
2023-03-05T12:05:19.656Z,100970.88
2023-03-05T12:07:51.163Z,100965.97
2023-03-05T12:10:23.280Z,100970.72
2023-03-05T12:12:59.031Z,100964.78
2023-03-05T12:15:42.157Z,100943.41
2023-03-05T12:18:19.690Z,100943.59
2023-03-05T12:20:54.426Z,100950.88
2023-03-05T12:23:23.555Z,100944.72
2023-03-05T12:25:56.997Z,100941.47
2023-03-05T12:29:04.513Z,100936.38
2023-03-05T12:31:40.137Z,100937.44
2023-03-05T12:34:36.164Z,100934.81
2023-03-05T12:37:04.508Z,100939.34
2023-03-05T12:39:52.643Z,100947.28
2023-03-05T12:42:56.671Z,100940.00
2023-03-05T12:45:29.652Z,100928.38
2023-03-05T12:48:34.697Z,100921.84
2023-03-05T12:51:02.536Z,100928.03
2023-03-05T12:53:30.327Z,100915.22
2023-03-05T12:56:03.976Z,100921.69
2023-03-05T12:58:40.834Z,100922.81
2023-03-05T13:01:22.025Z,100938.16
2023-03-05T13:03:55.749Z,100927.84
2023-03-05T13:06:29.213Z,100915.03
2023-03-05T13:08:59.213Z,100923.22
2023-03-05T13:11:28.660Z,100922.47
2023-03-05T13:13:56.543Z,100914.09
2023-03-05T13:16:29.080Z,100905.88
2023-03-05T13:19:01.235Z,100905.91
2023-03-05T13:21:30.732Z,100896.56
2023-03-05T13:23:59.889Z,100896.94
2023-03-05T13:26:29.047Z,100893.25
2023-03-05T13:29:13.076Z,100889.50
2023-03-05T13:31:47.506Z,100879.75
2023-03-05T13:34:22.565Z,100876.97
2023-03-05T13:36:56.741Z,100882.41
2023-03-05T13:39:28.373Z,100886.63
2023-03-05T13:42:01.790Z,100887.47
2023-03-05T13:44:31.449Z,100874.09
2023-03-05T13:47:18.144Z,100870.00
2023-03-05T13:49:47.304Z,100866.34
2023-03-05T13:52:25.078Z,100864.25
2023-03-05T13:54:52.952Z,100856.66
2023-03-05T13:57:39.178Z,100853.50
2023-03-05T14:00:09.661Z,100840.03
2023-03-05T14:02:44.203Z,100836.84
2023-03-05T14:05:16.512Z,100842.41
2023-03-05T14:07:48.048Z,100836.59
2023-03-05T14:10:30.843Z,100831.38
2023-03-05T14:12:59.730Z,100823.84
2023-03-05T14:15:29.963Z,100818.53
2023-03-05T14:18:19.374Z,100819.41
2023-03-05T14:21:02.628Z,100823.00
2023-03-05T14:23:39.789Z,100817.59
2023-03-05T14:26:32.607Z,100815.19
2023-03-05T14:29:02.360Z,100808.69
2023-03-05T14:31:32.174Z,100812.16
2023-03-05T14:34:07.154Z,100802.69
2023-03-05T14:36:35.339Z,100809.09
2023-03-05T14:39:03.128Z,100798.16
2023-03-05T14:41:37.767Z,100795.81
2023-03-05T14:44:13.588Z,100806.06
2023-03-05T14:46:41.687Z,100805.88
2023-03-05T14:49:11.286Z,100804.94
2023-03-05T14:51:41.566Z,100804.13
2023-03-05T14:54:20.309Z,100811.47
2023-03-05T14:56:49.670Z,100793.31
2023-03-05T14:59:18.984Z,100795.56
2023-03-05T15:01:46.779Z,100788.69
2023-03-05T15:04:20.991Z,100803.81
2023-03-05T15:06:51.199Z,100784.25
2023-03-05T15:09:21.184Z,100786.72
2023-03-05T15:11:49.613Z,100784.16
2023-03-05T15:14:17.534Z,100786.00
2023-03-05T15:16:47.787Z,100779.84
2023-03-05T15:19:17.023Z,100793.38
2023-03-05T15:21:44.918Z,100792.94
2023-03-05T15:24:14.766Z,100783.72
2023-03-05T15:26:42.603Z,100775.75
2023-03-05T15:29:10.380Z,100775.91
2023-03-05T15:31:40.696Z,100776.09
2023-03-05T15:34:08.533Z,100774.34
2023-03-05T15:36:37.639Z,100778.44
2023-03-05T15:39:07.175Z,100777.94
2023-03-05T15:41:34.951Z,100777.50
2023-03-05T15:44:02.690Z,100770.44
2023-03-05T15:46:30.531Z,100765.22
2023-03-05T15:48:58.295Z,100772.78
2023-03-05T15:51:26.036Z,100766.78
2023-03-05T15:53:55.308Z,100763.00
2023-03-05T15:56:23.037Z,100763.72
2023-03-05T15:58:51.299Z,100771.81
2023-03-05T16:01:20.726Z,100760.41
2023-03-05T16:03:48.544Z,100773.22
2023-03-05T16:06:20.434Z,100763.44
2023-03-05T16:08:48.638Z,100762.81
2023-03-05T16:11:18.994Z,100761.53
2023-03-05T16:13:46.827Z,100760.47
2023-03-05T16:16:15.080Z,100764.19
2023-03-05T16:18:46.214Z,100772.63
2023-03-05T16:21:14.833Z,100771.13
2023-03-05T16:23:42.619Z,100765.16
2023-03-05T16:26:11.036Z,100770.78
2023-03-05T16:28:40.245Z,100761.25
2023-03-05T16:31:08.107Z,100762.81
2023-03-05T16:33:36.478Z,100764.53
2023-03-05T16:36:23.679Z,100760.53
2023-03-05T16:38:52.946Z,100757.16
2023-03-05T16:41:24.333Z,100755.16
2023-03-05T16:43:56.315Z,100762.63
2023-03-05T16:46:25.027Z,100750.25
2023-03-05T16:48:53.117Z,100752.88
2023-03-05T16:51:22.155Z,100752.56
2023-03-05T16:53:49.949Z,100752.44
2023-03-05T16:56:18.244Z,100753.31
2023-03-05T16:58:46.210Z,100753.69
2023-03-05T17:01:17.783Z,100753.50
2023-03-05T17:03:45.698Z,100752.97
2023-03-05T17:06:14.688Z,100746.78
2023-03-05T17:08:42.834Z,100748.59
2023-03-05T17:11:11.985Z,100749.28
2023-03-05T17:13:40.902Z,100750.34
2023-03-05T17:16:10.296Z,100745.28
2023-03-05T17:18:39.751Z,100749.06
2023-03-05T17:21:08.383Z,100748.78
2023-03-05T17:23:38.532Z,100745.72
2023-03-05T17:26:07.520Z,100744.53
2023-03-05T17:28:35.644Z,100741.19
2023-03-05T17:31:04.000Z,100743.84
2023-03-05T17:33:35.687Z,100735.34
2023-03-05T17:36:06.385Z,100738.59
2023-03-05T17:38:34.253Z,100738.28
2023-03-05T17:41:01.995Z,100740.41
2023-03-05T17:43:29.897Z,100742.25
2023-03-05T17:45:59.680Z,100735.44
2023-03-05T17:48:27.868Z,100733.78
2023-03-05T17:50:55.666Z,100731.88
2023-03-05T17:53:24.947Z,100733.25
2023-03-05T17:55:53.078Z,100734.56
2023-03-05T17:58:20.927Z,100737.88
2023-03-05T18:00:48.863Z,100734.88
2023-03-05T18:03:16.640Z,100739.41
2023-03-05T18:05:46.138Z,100737.84
2023-03-05T18:08:14.036Z,100733.75
2023-03-05T18:10:43.408Z,100732.59
2023-03-05T18:13:11.220Z,100732.41
2023-03-05T18:15:41.732Z,100729.03
2023-03-05T18:18:09.443Z,100717.09
2023-03-05T18:20:38.253Z,100721.25
2023-03-05T18:23:06.954Z,100716.34
2023-03-05T18:25:35.566Z,100718.13
2023-03-05T18:28:07.771Z,100720.56
2023-03-05T18:30:37.675Z,100714.47
2023-03-05T18:33:06.157Z,100716.59
2023-03-05T18:35:34.402Z,100710.19
2023-03-05T18:38:02.387Z,100704.53
2023-03-05T18:40:33.385Z,100700.94
2023-03-05T18:43:02.054Z,100705.53
2023-03-05T18:45:32.401Z,100694.22
2023-03-05T18:48:00.146Z,100696.00
2023-03-05T18:50:29.687Z,100694.53
2023-03-05T18:52:57.664Z,100687.84
2023-03-05T18:55:27.842Z,100686.22
2023-03-05T18:57:56.370Z,100682.34
2023-03-05T19:00:26.258Z,100682.50
2023-03-05T19:02:56.240Z,100676.66
2023-03-05T19:05:26.118Z,100686.50
2023-03-05T19:07:55.179Z,100680.00
2023-03-05T19:10:23.450Z,100678.44
2023-03-05T19:12:56.807Z,100673.13
2023-03-05T19:15:24.896Z,100674.63
2023-03-05T19:17:52.654Z,100678.16
2023-03-05T19:20:21.938Z,100678.50
2023-03-05T19:22:50.828Z,100678.44
2023-03-05T19:25:19.257Z,100667.19
2023-03-05T19:27:47.002Z,100669.41
2023-03-05T19:30:16.256Z,100670.94
2023-03-05T19:32:47.057Z,100661.72
2023-03-05T19:35:16.209Z,100666.00
2023-03-05T19:37:46.084Z,100664.75
2023-03-05T19:40:15.191Z,100657.69
2023-03-05T19:42:43.067Z,100655.59
2023-03-05T19:45:11.645Z,100648.56
2023-03-05T19:47:39.384Z,100648.97
2023-03-05T19:50:08.530Z,100648.25
2023-03-05T19:52:36.647Z,100647.16
2023-03-05T19:55:06.751Z,100639.06
2023-03-05T19:57:34.481Z,100628.97
2023-03-05T20:00:02.216Z,100633.41
2023-03-05T20:02:29.953Z,100617.78
2023-03-05T20:04:57.689Z,100621.69
2023-03-05T20:07:25.457Z,100618.69
2023-03-05T20:09:55.365Z,100615.97
2023-03-05T20:12:24.835Z,100613.88
2023-03-05T20:14:52.544Z,100610.22
2023-03-05T20:17:20.701Z,100614.28
2023-03-05T20:19:48.448Z,100604.16
2023-03-05T20:22:16.152Z,100609.38
2023-03-05T20:24:43.923Z,100605.41
2023-03-05T20:27:11.712Z,100604.50
2023-03-05T20:29:40.825Z,100598.25
2023-03-05T20:32:08.624Z,100595.13
2023-03-05T20:34:36.424Z,100591.44
2023-03-05T20:37:05.162Z,100586.03
2023-03-05T20:39:32.917Z,100583.09
2023-03-05T20:42:01.004Z,100585.84
2023-03-05T20:44:28.796Z,100580.00
2023-03-05T20:47:12.456Z,100574.97
2023-03-05T20:49:40.260Z,100574.34
2023-03-05T20:52:08.032Z,100579.03
2023-03-05T20:54:35.780Z,100563.13
2023-03-05T20:57:03.551Z,100567.47
2023-03-05T20:59:31.257Z,100559.44
2023-03-05T21:02:00.437Z,100559.59
2023-03-05T21:04:28.201Z,100551.59
2023-03-05T21:06:55.933Z,100548.34
2023-03-05T21:09:23.657Z,100546.03
2023-03-05T21:11:51.367Z,100549.16
2023-03-05T21:14:19.083Z,100538.81
2023-03-05T21:16:46.894Z,100544.19
2023-03-05T21:19:16.409Z,100530.44
2023-03-05T21:21:45.675Z,100523.91
2023-03-05T21:24:14.060Z,100526.03
2023-03-05T21:26:41.789Z,100516.28
2023-03-05T21:29:09.534Z,100512.28
2023-03-05T21:31:37.853Z,100517.56
2023-03-05T21:34:05.741Z,100510.81
2023-03-05T21:36:35.058Z,100490.00
2023-03-05T21:39:02.838Z,100480.69
2023-03-05T21:41:31.100Z,100475.75
2023-03-05T21:44:03.894Z,100484.44
2023-03-05T21:46:31.728Z,100471.44
2023-03-05T21:48:59.495Z,100473.56
2023-03-05T21:51:38.360Z,100470.41
2023-03-05T21:54:08.953Z,100469.47
2023-03-05T21:56:36.768Z,100461.59
2023-03-05T21:59:04.526Z,100455.56
2023-03-05T22:01:32.408Z,100457.28
2023-03-05T22:04:00.240Z,100448.94
2023-03-05T22:06:28.210Z,100454.94
2023-03-05T22:08:55.924Z,100442.03
2023-03-05T22:11:25.111Z,100432.00
2023-03-05T22:13:52.854Z,100437.53
2023-03-05T22:16:24.842Z,100444.75
2023-03-05T22:18:53.236Z,100438.59
2023-03-05T22:21:22.581Z,100446.00
2023-03-05T22:23:50.792Z,100443.72
2023-03-05T22:26:18.588Z,100429.16
2023-03-05T22:28:47.750Z,100433.00
2023-03-05T22:31:21.766Z,100433.69
2023-03-05T22:33:49.540Z,100427.16
2023-03-05T22:36:17.586Z,100426.66
2023-03-05T22:38:46.081Z,100423.78
2023-03-05T22:41:16.351Z,100408.75
2023-03-05T22:43:44.119Z,100390.75
2023-03-05T22:46:15.678Z,100383.00
2023-03-05T22:48:43.878Z,100390.13
2023-03-05T22:51:12.293Z,100400.69
2023-03-05T22:53:40.245Z,100388.88
2023-03-05T22:56:08.575Z,100386.34
2023-03-05T22:58:36.879Z,100373.47
2023-03-05T23:01:11.134Z,100366.56
2023-03-05T23:03:40.801Z,100344.50
2023-03-05T23:06:09.627Z,100356.16
2023-03-05T23:08:37.646Z,100340.41
2023-03-05T23:11:09.989Z,100331.34
2023-03-05T23:13:37.832Z,100342.72
2023-03-05T23:16:06.329Z,100340.84
2023-03-05T23:18:34.446Z,100326.03
2023-03-05T23:21:03.636Z,100308.81
2023-03-05T23:23:31.412Z,100298.44
2023-03-05T23:25:59.214Z,100302.47
2023-03-05T23:28:27.064Z,100281.44
2023-03-05T23:30:54.882Z,100280.38
2023-03-05T23:33:24.873Z,100265.84
2023-03-05T23:35:54.883Z,100251.94
2023-03-05T23:38:24.657Z,100238.44
2023-03-05T23:40:54.725Z,100212.47
2023-03-05T23:43:25.518Z,100209.78
2023-03-05T23:45:55.090Z,100183.91
2023-03-05T23:48:23.757Z,100206.56
2023-03-05T23:50:51.772Z,100213.28
2023-03-05T23:53:22.126Z,100199.53
2023-03-05T23:55:51.565Z,100202.16
2023-03-05T23:58:20.356Z,100186.59
